createdAt,value
2022-11-14T00:00:24.798Z,9.55
2022-11-14T00:01:29.090Z,9.53
2022-11-14T00:02:33.354Z,9.53
2022-11-14T00:03:37.621Z,9.53
2022-11-14T00:04:41.707Z,9.53
2022-11-14T00:05:45.949Z,9.53
2022-11-14T00:06:50.194Z,9.52
2022-11-14T00:07:54.389Z,9.52
2022-11-14T00:08:58.656Z,9.50
2022-11-14T00:10:02.950Z,9.46
2022-11-14T00:11:07.171Z,9.44
2022-11-14T00:12:11.420Z,9.43
2022-11-14T00:13:15.471Z,9.42
2022-11-14T00:14:19.768Z,9.43
2022-11-14T00:15:24.141Z,9.44
2022-11-14T00:16:28.397Z,9.44
2022-11-14T00:17:32.662Z,9.44
2022-11-14T00:18:36.858Z,9.45
2022-11-14T00:19:41.184Z,9.44
2022-11-14T00:20:45.277Z,9.44
2022-11-14T00:21:49.492Z,9.43
2022-11-14T00:22:53.824Z,9.42
2022-11-14T00:23:57.986Z,9.42
2022-11-14T00:25:02.250Z,9.39
2022-11-14T00:26:06.459Z,9.38
2022-11-14T00:27:10.673Z,9.36
2022-11-14T00:28:15.006Z,9.35
2022-11-14T00:29:19.202Z,9.37
2022-11-14T00:30:23.391Z,9.39
2022-11-14T00:31:27.594Z,9.40
2022-11-14T00:32:31.893Z,9.40
2022-11-14T00:33:36.011Z,9.41
2022-11-14T00:34:40.246Z,9.42
2022-11-14T00:35:44.592Z,9.43
2022-11-14T00:36:48.579Z,9.44
2022-11-14T00:37:52.866Z,9.47
2022-11-14T00:38:57.063Z,9.50
2022-11-14T00:40:01.309Z,9.51
2022-11-14T00:41:05.457Z,9.53
2022-11-14T00:42:09.745Z,9.55
2022-11-14T00:43:13.900Z,9.55
2022-11-14T00:44:18.162Z,9.55
2022-11-14T00:45:22.397Z,9.55
2022-11-14T00:46:26.613Z,9.56
2022-11-14T00:47:30.825Z,9.54
2022-11-14T00:48:35.088Z,9.52
2022-11-14T00:49:39.314Z,9.50
2022-11-14T00:50:43.519Z,9.48
2022-11-14T00:51:47.857Z,9.47
2022-11-14T00:52:51.961Z,9.47
2022-11-14T00:53:56.164Z,9.48
2022-11-14T00:55:00.410Z,9.46
2022-11-14T00:56:04.689Z,9.47
2022-11-14T00:57:08.942Z,9.47
2022-11-14T00:58:13.120Z,9.47
2022-11-14T00:59:17.369Z,9.46
2022-11-14T01:00:21.674Z,9.44
2022-11-14T01:01:25.811Z,9.45
2022-11-14T01:02:30.034Z,9.46
2022-11-14T01:03:34.237Z,9.45
2022-11-14T01:04:38.450Z,9.42
2022-11-14T01:05:42.679Z,9.42
2022-11-14T01:06:46.985Z,9.43
2022-11-14T01:07:51.293Z,9.44
2022-11-14T01:08:55.465Z,9.44
2022-11-14T01:09:59.568Z,9.41
2022-11-14T01:11:03.793Z,9.41
2022-11-14T01:12:08.010Z,9.39
2022-11-14T01:13:12.309Z,9.39
2022-11-14T01:14:16.489Z,9.39
2022-11-14T01:15:20.702Z,9.39
2022-11-14T01:16:25.011Z,9.38
2022-11-14T01:17:29.300Z,9.38
2022-11-14T01:18:33.550Z,9.37
2022-11-14T01:19:37.844Z,9.36
2022-11-14T01:20:42.015Z,9.36
2022-11-14T01:21:46.232Z,9.35
2022-11-14T01:22:50.351Z,9.35
2022-11-14T01:23:54.772Z,9.35
2022-11-14T01:24:58.891Z,9.34
2022-11-14T01:26:03.134Z,9.33
2022-11-14T01:27:07.318Z,9.33
2022-11-14T01:28:11.621Z,9.32
2022-11-14T01:29:15.905Z,9.31
2022-11-14T01:30:20.170Z,9.29
2022-11-14T01:31:24.450Z,9.27
2022-11-14T01:32:28.745Z,9.26
2022-11-14T01:33:32.887Z,9.26
2022-11-14T01:34:37.101Z,9.25
2022-11-14T01:35:41.327Z,9.26
2022-11-14T01:36:45.553Z,9.22
2022-11-14T01:37:49.821Z,9.16
2022-11-14T01:38:54.065Z,9.13
2022-11-14T01:39:58.415Z,9.11
2022-11-14T01:41:02.453Z,9.07
2022-11-14T01:42:06.778Z,9.03
2022-11-14T01:43:11.062Z,9.01
2022-11-14T01:44:15.199Z,8.98
2022-11-14T01:45:19.423Z,8.98
2022-11-14T01:46:23.544Z,8.95
2022-11-14T01:47:27.814Z,8.92
2022-11-14T01:48:32.341Z,8.86
2022-11-14T01:49:36.318Z,8.84
2022-11-14T01:50:40.483Z,8.83
2022-11-14T01:51:44.686Z,8.84
2022-11-14T01:52:48.899Z,8.85
2022-11-14T01:53:53.086Z,8.83
2022-11-14T01:54:57.221Z,8.83
2022-11-14T01:56:01.602Z,8.81
2022-11-14T01:57:05.730Z,8.77
2022-11-14T01:58:10.084Z,8.78
2022-11-14T01:59:14.256Z,8.79
2022-11-14T02:00:18.431Z,8.77
2022-11-14T02:01:22.655Z,8.76
2022-11-14T02:02:26.800Z,8.76
2022-11-14T02:03:31.129Z,8.78
2022-11-14T02:04:35.276Z,8.78
2022-11-14T02:05:39.599Z,8.78
2022-11-14T02:06:43.716Z,8.78
2022-11-14T02:07:47.880Z,8.78
2022-11-14T02:08:52.186Z,8.76
2022-11-14T02:09:56.449Z,8.77
2022-11-14T02:11:00.639Z,8.79
2022-11-14T02:12:04.954Z,8.80
2022-11-14T02:13:09.009Z,8.79
2022-11-14T02:14:13.217Z,8.78
2022-11-14T02:15:17.409Z,8.77
2022-11-14T02:16:21.595Z,8.77
2022-11-14T02:17:30.642Z,8.77
2022-11-14T02:18:30.355Z,8.76
2022-11-14T02:19:34.317Z,8.76
2022-11-14T02:20:38.487Z,8.76
2022-11-14T02:21:42.694Z,8.75
2022-11-14T02:22:46.989Z,8.75
2022-11-14T02:23:51.249Z,8.76
2022-11-14T02:24:55.369Z,8.77
2022-11-14T02:25:59.590Z,8.76
2022-11-14T02:27:03.930Z,8.75
2022-11-14T02:28:08.214Z,8.74
2022-11-14T02:29:12.411Z,8.70
2022-11-14T02:30:16.676Z,8.68
2022-11-14T02:31:20.818Z,8.66
2022-11-14T02:32:25.017Z,8.64
2022-11-14T02:33:29.254Z,8.63
2022-11-14T02:34:33.521Z,8.64
2022-11-14T02:35:37.667Z,8.64
2022-11-14T02:36:41.958Z,8.65
2022-11-14T02:37:46.103Z,8.66
2022-11-14T02:38:50.292Z,8.65
2022-11-14T02:39:54.561Z,8.63
2022-11-14T02:40:58.687Z,8.62
2022-11-14T02:42:02.888Z,8.62
2022-11-14T02:43:07.080Z,8.62
2022-11-14T02:44:11.396Z,8.61
2022-11-14T02:45:15.573Z,8.60
2022-11-14T02:46:19.837Z,8.60
2022-11-14T02:47:23.997Z,8.60
2022-11-14T02:48:28.609Z,8.60
2022-11-14T02:49:32.392Z,8.58
2022-11-14T02:50:36.612Z,8.58
2022-11-14T02:51:40.776Z,8.57
2022-11-14T02:52:44.960Z,8.57
2022-11-14T02:53:49.277Z,8.56
2022-11-14T02:54:54.796Z,8.55
2022-11-14T02:55:57.628Z,8.55
2022-11-14T02:57:01.829Z,8.55
2022-11-14T02:58:06.133Z,8.55
2022-11-14T02:59:10.275Z,8.55
2022-11-14T03:00:15.414Z,8.55
2022-11-14T03:01:21.450Z,8.57
2022-11-14T03:02:22.895Z,8.58
2022-11-14T03:03:27.201Z,8.60
2022-11-14T03:04:31.450Z,8.60
2022-11-14T03:05:35.590Z,8.62
2022-11-14T03:06:39.812Z,8.61
2022-11-14T03:07:44.012Z,8.60
2022-11-14T03:08:48.204Z,8.61
2022-11-14T03:09:52.419Z,8.60
2022-11-14T03:10:56.617Z,8.61
2022-11-14T03:12:00.810Z,8.60
2022-11-14T03:13:05.030Z,8.59
2022-11-14T03:14:09.315Z,8.58
2022-11-14T03:15:13.561Z,8.58
2022-11-14T03:16:17.851Z,8.57
2022-11-14T03:17:21.926Z,8.55
2022-11-14T03:18:26.301Z,8.55
2022-11-14T03:19:30.351Z,8.53
2022-11-14T03:20:34.559Z,8.51
2022-11-14T03:21:38.763Z,8.50
2022-11-14T03:22:42.973Z,8.49
2022-11-14T03:23:47.170Z,8.50
2022-11-14T03:24:51.388Z,8.51
2022-11-14T03:25:55.555Z,8.50
2022-11-14T03:26:59.769Z,8.49
2022-11-14T03:28:04.059Z,8.50
2022-11-14T03:29:08.232Z,8.49
2022-11-14T03:30:12.493Z,8.50
2022-11-14T03:31:16.787Z,8.50
2022-11-14T03:32:21.045Z,8.51
2022-11-14T03:33:25.141Z,8.53
2022-11-14T03:34:29.421Z,8.53
2022-11-14T03:35:33.557Z,8.53
2022-11-14T03:36:37.847Z,8.52
2022-11-14T03:37:42.013Z,8.53
2022-11-14T03:38:46.293Z,8.54
2022-11-14T03:39:50.571Z,8.55
2022-11-14T03:40:54.769Z,8.54
2022-11-14T03:41:59.079Z,8.53
2022-11-14T03:43:03.196Z,8.53
2022-11-14T03:44:07.384Z,8.51
2022-11-14T03:45:11.578Z,8.49
2022-11-14T03:46:15.776Z,8.48
2022-11-14T03:47:20.106Z,8.47
2022-11-14T03:48:24.367Z,8.45
2022-11-14T03:49:28.548Z,8.41
2022-11-14T03:50:32.721Z,8.37
2022-11-14T03:51:36.926Z,8.34
2022-11-14T03:52:41.003Z,8.30
2022-11-14T03:53:45.283Z,8.28
2022-11-14T03:54:49.466Z,8.27
2022-11-14T03:55:53.655Z,8.25
2022-11-14T03:56:57.954Z,8.23
2022-11-14T03:58:02.116Z,8.22
2022-11-14T03:59:06.297Z,8.21
2022-11-14T04:00:10.505Z,8.20
2022-11-14T04:01:14.862Z,8.20
2022-11-14T04:02:18.864Z,8.21
2022-11-14T04:03:23.175Z,8.22
2022-11-14T04:04:27.453Z,8.24
2022-11-14T04:05:31.549Z,8.23
2022-11-14T04:06:35.899Z,8.23
2022-11-14T04:07:40.040Z,8.24
2022-11-14T04:08:44.219Z,8.22
2022-11-14T04:09:48.407Z,8.23
2022-11-14T04:10:52.636Z,8.22
2022-11-14T04:11:56.934Z,8.22
2022-11-14T04:13:01.181Z,8.18
2022-11-14T04:14:05.312Z,8.18
2022-11-14T04:15:09.518Z,8.16
2022-11-14T04:16:13.726Z,8.17
2022-11-14T04:17:17.952Z,8.15
2022-11-14T04:18:22.146Z,8.15
2022-11-14T04:19:26.364Z,8.14
2022-11-14T04:20:30.682Z,8.13
2022-11-14T04:21:34.667Z,8.15
2022-11-14T04:22:38.945Z,8.14
2022-11-14T04:23:43.245Z,8.14
2022-11-14T04:24:47.289Z,8.12
2022-11-14T04:25:51.645Z,8.12
2022-11-14T04:26:55.764Z,8.13
2022-11-14T04:27:59.977Z,8.14
2022-11-14T04:29:04.210Z,8.16
2022-11-14T04:30:08.420Z,8.16
2022-11-14T04:31:12.579Z,8.15
2022-11-14T04:32:16.797Z,8.14
2022-11-14T04:33:21.079Z,8.11
2022-11-14T04:34:25.237Z,8.11
2022-11-14T04:35:29.552Z,8.11
2022-11-14T04:36:33.845Z,8.10
2022-11-14T04:37:38.027Z,8.10
2022-11-14T04:38:42.286Z,8.10
2022-11-14T04:39:46.550Z,8.12
2022-11-14T04:40:50.722Z,8.13
2022-11-14T04:41:54.943Z,8.14
2022-11-14T04:42:59.127Z,8.14
2022-11-14T04:44:03.240Z,8.13
2022-11-14T04:45:07.593Z,8.12
2022-11-14T04:46:11.697Z,8.12
2022-11-14T04:47:15.898Z,8.13
2022-11-14T04:48:20.123Z,8.15
2022-11-14T04:49:24.235Z,8.16
2022-11-14T04:50:28.514Z,8.17
2022-11-14T04:51:32.726Z,8.20
2022-11-14T04:52:37.162Z,8.22
2022-11-14T04:53:41.193Z,8.22
2022-11-14T04:54:45.355Z,8.19
2022-11-14T04:55:49.643Z,8.20
2022-11-14T04:56:53.813Z,8.19
2022-11-14T04:57:58.035Z,8.14
2022-11-14T04:59:02.234Z,8.12
2022-11-14T05:00:06.528Z,8.11
2022-11-14T05:01:10.955Z,8.08
2022-11-14T05:02:15.013Z,8.09
2022-11-14T05:03:19.158Z,8.05
2022-11-14T05:04:23.351Z,8.05
2022-11-14T05:05:27.535Z,8.05
2022-11-14T05:06:31.880Z,8.05
2022-11-14T05:07:36.171Z,8.04
2022-11-14T05:08:40.275Z,8.03
2022-11-14T05:09:44.421Z,8.03
2022-11-14T05:10:48.618Z,8.03
2022-11-14T05:11:52.819Z,8.02
2022-11-14T05:12:56.899Z,8.02
2022-11-14T05:14:01.153Z,8.03
2022-11-14T05:15:05.387Z,8.04
2022-11-14T05:16:09.563Z,8.04
2022-11-14T05:17:13.764Z,8.06
2022-11-14T05:18:18.005Z,8.07
2022-11-14T05:19:22.104Z,8.06
2022-11-14T05:20:26.365Z,8.07
2022-11-14T05:21:30.548Z,8.06
2022-11-14T05:22:34.750Z,8.07
2022-11-14T05:23:38.892Z,8.03
2022-11-14T05:24:43.050Z,8.00
2022-11-14T05:25:47.230Z,7.99
2022-11-14T05:26:51.426Z,7.96
2022-11-14T05:27:55.615Z,7.92
2022-11-14T05:28:59.927Z,7.90
2022-11-14T05:30:04.164Z,7.89
2022-11-14T05:31:08.327Z,7.90
2022-11-14T05:32:16.308Z,7.88
2022-11-14T05:33:16.826Z,7.88
2022-11-14T05:34:20.947Z,7.89
2022-11-14T05:35:25.216Z,7.89
2022-11-14T05:36:29.369Z,7.89
2022-11-14T05:37:33.564Z,7.89
2022-11-14T05:38:37.776Z,7.88
2022-11-14T05:39:41.994Z,7.87
2022-11-14T05:40:46.254Z,7.86
2022-11-14T05:41:50.487Z,7.83
2022-11-14T05:42:54.638Z,7.82
2022-11-14T05:43:58.841Z,7.83
2022-11-14T05:45:03.072Z,7.83
2022-11-14T05:46:07.231Z,7.85
2022-11-14T05:47:11.484Z,7.85
2022-11-14T05:48:15.681Z,7.82
2022-11-14T05:49:22.045Z,7.81
2022-11-14T05:50:23.956Z,7.80
2022-11-14T05:51:28.229Z,7.79
2022-11-14T05:52:32.435Z,7.80
2022-11-14T05:53:36.772Z,7.81
2022-11-14T05:54:40.920Z,7.81
2022-11-14T05:55:45.089Z,7.80
2022-11-14T05:56:49.401Z,7.78
2022-11-14T05:57:53.516Z,7.77
2022-11-14T05:58:57.822Z,7.76
2022-11-14T06:00:01.969Z,7.75
2022-11-14T06:01:06.162Z,7.76
2022-11-14T06:02:10.415Z,7.75
2022-11-14T06:03:14.615Z,7.74
2022-11-14T06:04:18.764Z,7.72
2022-11-14T06:05:23.046Z,7.68
2022-11-14T06:06:27.288Z,7.68
2022-11-14T06:07:31.550Z,7.67
2022-11-14T06:08:35.710Z,7.67
2022-11-14T06:09:39.867Z,7.67
2022-11-14T06:10:44.032Z,7.65
2022-11-14T06:11:48.210Z,7.64
2022-11-14T06:12:52.427Z,7.63
2022-11-14T06:13:56.577Z,7.61
2022-11-14T06:15:00.773Z,7.62
2022-11-14T06:16:05.073Z,7.59
2022-11-14T06:17:09.228Z,7.60
2022-11-14T06:18:13.490Z,7.59
2022-11-14T06:19:17.537Z,7.59
2022-11-14T06:20:21.872Z,7.60
2022-11-14T06:21:25.994Z,7.58
2022-11-14T06:22:30.198Z,7.56
2022-11-14T06:23:34.542Z,7.56
2022-11-14T06:24:38.647Z,7.56
2022-11-14T06:25:42.823Z,7.58
2022-11-14T06:26:47.013Z,7.59
2022-11-14T06:27:51.181Z,7.59
2022-11-14T06:28:55.602Z,7.60
2022-11-14T06:29:59.732Z,7.58
2022-11-14T06:31:03.895Z,7.58
2022-11-14T06:32:08.083Z,7.58
2022-11-14T06:33:12.264Z,7.57
2022-11-14T06:34:16.474Z,7.59
2022-11-14T06:35:20.720Z,7.60
2022-11-14T06:36:24.875Z,7.60
2022-11-14T06:37:33.379Z,7.57
2022-11-14T06:38:33.410Z,7.57
2022-11-14T06:39:37.553Z,7.58
2022-11-14T06:40:41.681Z,7.59
2022-11-14T06:41:45.918Z,7.59
2022-11-14T06:42:50.125Z,7.60
2022-11-14T06:43:54.340Z,7.62
2022-11-14T06:44:58.569Z,7.63
2022-11-14T06:46:02.798Z,7.64
2022-11-14T06:47:07.064Z,7.66
2022-11-14T06:48:11.321Z,7.66
2022-11-14T06:49:15.450Z,7.64
2022-11-14T06:50:19.607Z,7.63
2022-11-14T06:51:23.800Z,7.65
2022-11-14T06:52:28.067Z,7.68
2022-11-14T06:53:32.231Z,7.65
2022-11-14T06:54:36.407Z,7.66
2022-11-14T06:55:40.606Z,7.67
2022-11-14T06:56:44.804Z,7.65
2022-11-14T06:57:49.038Z,7.64
2022-11-14T06:58:53.261Z,7.66
2022-11-14T06:59:57.456Z,7.66
2022-11-14T07:01:01.765Z,7.64
2022-11-14T07:02:05.961Z,7.66
2022-11-14T07:03:10.162Z,7.64
2022-11-14T07:04:14.336Z,7.65
2022-11-14T07:05:18.441Z,7.64
2022-11-14T07:06:22.599Z,7.67
2022-11-14T07:07:28.720Z,7.65
2022-11-14T07:08:31.171Z,7.65
2022-11-14T07:09:35.168Z,7.66
2022-11-14T07:10:39.347Z,7.66
2022-11-14T07:11:43.575Z,7.68
2022-11-14T07:12:47.786Z,7.69
2022-11-14T07:13:52.106Z,7.69
2022-11-14T07:14:56.357Z,7.72
2022-11-14T07:16:00.482Z,7.72
2022-11-14T07:17:04.771Z,7.72
2022-11-14T07:18:08.978Z,7.71
2022-11-14T07:19:13.126Z,7.71
2022-11-14T07:20:17.308Z,7.70
2022-11-14T07:21:21.610Z,7.71
2022-11-14T07:22:25.763Z,7.73
2022-11-14T07:23:29.966Z,7.73
2022-11-14T07:24:34.161Z,7.75
2022-11-14T07:25:38.366Z,7.72
2022-11-14T07:26:42.563Z,7.72
2022-11-14T07:27:46.892Z,7.73
2022-11-14T07:28:54.409Z,7.72
2022-11-14T07:29:55.271Z,7.73
2022-11-14T07:30:59.527Z,7.74
2022-11-14T07:32:03.570Z,7.76
2022-11-14T07:33:07.857Z,7.78
2022-11-14T07:34:12.146Z,7.79
2022-11-14T07:35:16.288Z,7.79
2022-11-14T07:36:20.488Z,7.80
2022-11-14T07:37:24.702Z,7.81
2022-11-14T07:38:29.292Z,7.83
2022-11-14T07:39:33.202Z,7.82
2022-11-14T07:40:37.317Z,7.81
2022-11-14T07:41:41.499Z,7.79
2022-11-14T07:42:45.663Z,7.80
2022-11-14T07:43:49.984Z,7.81
2022-11-14T07:44:54.123Z,7.83
2022-11-14T07:45:58.342Z,7.83
2022-11-14T07:47:02.566Z,7.83
2022-11-14T07:48:06.734Z,7.83
2022-11-14T07:49:10.978Z,7.82
2022-11-14T07:50:20.073Z,7.83
2022-11-14T07:51:19.306Z,7.82
2022-11-14T07:52:23.505Z,7.83
2022-11-14T07:53:27.706Z,7.85
2022-11-14T07:54:31.979Z,7.84
2022-11-14T07:55:36.227Z,7.84
2022-11-14T07:56:40.469Z,7.86
2022-11-14T07:57:48.981Z,7.85
2022-11-14T07:58:48.807Z,7.85
2022-11-14T07:59:53.016Z,7.86
2022-11-14T08:00:57.259Z,7.86
2022-11-14T08:02:01.407Z,7.85
2022-11-14T08:03:05.608Z,7.87
2022-11-14T08:04:09.846Z,7.87
2022-11-14T08:05:14.197Z,7.87
2022-11-14T08:06:18.307Z,7.88
2022-11-14T08:07:22.689Z,7.90
2022-11-14T08:08:26.931Z,7.91
2022-11-14T08:09:30.982Z,7.92
2022-11-14T08:10:35.285Z,7.92
2022-11-14T08:11:39.352Z,7.92
2022-11-14T08:12:43.568Z,7.92
2022-11-14T08:13:47.775Z,7.93
2022-11-14T08:14:51.963Z,7.95
2022-11-14T08:15:56.248Z,7.93
2022-11-14T08:17:00.505Z,7.93
2022-11-14T08:18:04.746Z,7.95
2022-11-14T08:19:09.036Z,7.95
2022-11-14T08:20:13.301Z,7.96
2022-11-14T08:21:17.500Z,7.97
2022-11-14T08:22:21.741Z,7.97
2022-11-14T08:23:25.946Z,7.98
2022-11-14T08:24:30.151Z,7.97
2022-11-14T08:25:34.259Z,7.98
2022-11-14T08:26:38.611Z,7.99
2022-11-14T08:27:42.865Z,7.98
2022-11-14T08:28:47.095Z,7.99
2022-11-14T08:29:51.230Z,8.01
2022-11-14T08:30:55.412Z,8.04
2022-11-14T08:32:00.307Z,8.09
2022-11-14T08:33:03.919Z,8.10
2022-11-14T08:34:08.165Z,8.12
2022-11-14T08:35:12.355Z,8.15
2022-11-14T08:36:16.547Z,8.17
2022-11-14T08:37:20.882Z,8.20
2022-11-14T08:38:25.106Z,8.18
2022-11-14T08:39:29.353Z,8.17
2022-11-14T08:40:33.478Z,8.16
2022-11-14T08:41:37.701Z,8.16
2022-11-14T08:42:41.811Z,8.18
2022-11-14T08:43:46.101Z,8.20
2022-11-14T08:44:52.198Z,8.21
2022-11-14T08:45:54.568Z,8.22
2022-11-14T08:46:58.830Z,8.23
2022-11-14T08:48:03.058Z,8.22
2022-11-14T08:49:07.298Z,8.21
2022-11-14T08:50:11.467Z,8.21
2022-11-14T08:51:15.751Z,8.20
2022-11-14T08:52:20.025Z,8.20
2022-11-14T08:53:24.223Z,8.21
2022-11-14T08:54:28.369Z,8.19
2022-11-14T08:55:32.561Z,8.18
2022-11-14T08:56:36.802Z,8.18
2022-11-14T08:57:44.195Z,8.19
2022-11-14T08:58:45.336Z,8.21
2022-11-14T08:59:49.603Z,8.23
2022-11-14T09:00:53.758Z,8.26
2022-11-14T09:01:57.956Z,8.28
2022-11-14T09:03:02.233Z,8.29
2022-11-14T09:04:06.518Z,8.30
2022-11-14T09:05:10.577Z,8.31
2022-11-14T09:06:14.744Z,8.30
2022-11-14T09:07:18.974Z,8.30
2022-11-14T09:08:23.206Z,8.28
2022-11-14T09:09:27.422Z,8.30
2022-11-14T09:10:31.574Z,8.31
2022-11-14T09:11:35.743Z,8.32
2022-11-14T09:12:39.880Z,8.34
2022-11-14T09:13:44.148Z,8.32
2022-11-14T09:14:48.338Z,8.31
2022-11-14T09:15:52.640Z,8.32
2022-11-14T09:16:58.135Z,8.35
2022-11-14T09:18:01.088Z,8.37
2022-11-14T09:19:05.233Z,8.37
2022-11-14T09:20:09.518Z,8.39
2022-11-14T09:21:13.766Z,8.39
2022-11-14T09:22:17.935Z,8.39
2022-11-14T09:23:22.145Z,8.40
2022-11-14T09:24:26.436Z,8.40
2022-11-14T09:25:30.616Z,8.41
2022-11-14T09:26:34.873Z,8.43
2022-11-14T09:27:39.117Z,8.43
2022-11-14T09:28:43.269Z,8.44
2022-11-14T09:29:47.564Z,8.45
2022-11-14T09:30:51.807Z,8.47
2022-11-14T09:31:55.935Z,8.47
2022-11-14T09:33:00.171Z,8.48
2022-11-14T09:34:04.384Z,8.49
2022-11-14T09:35:08.634Z,8.51
2022-11-14T09:36:12.836Z,8.56
2022-11-14T09:37:17.114Z,8.60
2022-11-14T09:38:21.300Z,8.62
2022-11-14T09:39:25.574Z,8.60
2022-11-14T09:40:29.704Z,8.63
2022-11-14T09:41:33.933Z,8.67
2022-11-14T09:42:38.108Z,8.68
2022-11-14T09:43:42.423Z,8.70
2022-11-14T09:44:46.729Z,8.72
2022-11-14T09:45:50.912Z,8.74
2022-11-14T09:46:55.232Z,8.76
2022-11-14T09:47:59.420Z,8.78
2022-11-14T09:49:03.610Z,8.77
2022-11-14T09:50:07.829Z,8.73
2022-11-14T09:51:12.179Z,8.70
2022-11-14T09:52:16.295Z,8.69
2022-11-14T09:53:20.569Z,8.68
2022-11-14T09:54:24.717Z,8.68
2022-11-14T09:55:33.592Z,8.67
2022-11-14T09:56:33.197Z,8.66
2022-11-14T09:57:37.412Z,8.65
2022-11-14T09:58:41.691Z,8.66
2022-11-14T09:59:45.954Z,8.68
2022-11-14T10:00:50.099Z,8.66
2022-11-14T10:01:54.466Z,8.65
2022-11-14T10:02:58.558Z,8.65
2022-11-14T10:04:07.009Z,8.66
2022-11-14T10:05:07.006Z,8.67
2022-11-14T10:06:11.208Z,8.66
2022-11-14T10:07:15.494Z,8.65
2022-11-14T10:08:19.642Z,8.67
2022-11-14T10:09:28.848Z,8.69
2022-11-14T10:10:28.077Z,8.72
2022-11-14T10:11:32.293Z,8.73
2022-11-14T10:12:36.613Z,8.75
2022-11-14T10:13:40.855Z,8.76
2022-11-14T10:14:45.010Z,8.79
2022-11-14T10:15:49.233Z,8.82
2022-11-14T10:16:53.482Z,8.86
2022-11-14T10:17:57.663Z,8.89
2022-11-14T10:19:01.875Z,8.93
2022-11-14T10:20:06.055Z,9.00
2022-11-14T10:21:10.386Z,9.06
2022-11-14T10:22:14.527Z,9.11
2022-11-14T10:23:18.774Z,9.15
2022-11-14T10:24:23.098Z,9.19
2022-11-14T10:25:27.270Z,9.21
2022-11-14T10:26:31.513Z,9.19
2022-11-14T10:27:35.703Z,9.21
2022-11-14T10:28:39.917Z,9.24
2022-11-14T10:29:44.139Z,9.28
2022-11-14T10:30:48.346Z,9.32
2022-11-14T10:31:52.582Z,9.34
2022-11-14T10:32:56.810Z,9.36
2022-11-14T10:34:01.010Z,9.41
2022-11-14T10:35:05.227Z,9.45
2022-11-14T10:36:09.446Z,9.45
2022-11-14T10:37:13.770Z,9.46
2022-11-14T10:38:17.959Z,9.48
2022-11-14T10:39:22.268Z,9.50
2022-11-14T10:40:26.453Z,9.52
2022-11-14T10:42:34.949Z,9.51
2022-11-14T10:43:39.250Z,9.51
2022-11-14T10:44:43.521Z,9.46
2022-11-14T10:45:47.696Z,9.39
2022-11-14T10:46:51.899Z,9.36
2022-11-14T10:47:56.248Z,9.29
2022-11-14T10:49:00.655Z,9.18
2022-11-14T10:50:04.691Z,9.11
2022-11-14T10:51:08.806Z,9.06
2022-11-14T10:52:13.132Z,9.02
2022-11-14T10:53:17.266Z,8.97
2022-11-14T10:54:21.455Z,8.95
2022-11-14T10:55:43.487Z,8.93
2022-11-14T10:56:29.974Z,8.91
2022-11-14T10:57:34.091Z,8.90
2022-11-14T10:58:47.978Z,8.90
2022-11-14T10:59:42.554Z,8.90
2022-11-14T11:00:46.863Z,8.90
2022-11-14T11:01:50.995Z,8.89
2022-11-14T11:02:55.330Z,8.90
2022-11-14T11:03:59.613Z,8.92
2022-11-14T11:05:03.718Z,8.94
2022-11-14T11:06:07.944Z,8.98
2022-11-14T11:07:12.176Z,9.00
2022-11-14T11:08:42.753Z,9.03
2022-11-14T11:09:20.764Z,9.07
2022-11-14T11:10:24.918Z,9.10
2022-11-14T11:11:29.163Z,9.13
2022-11-14T11:12:33.470Z,9.17
2022-11-14T11:13:37.727Z,9.20
2022-11-14T11:14:41.883Z,9.23
2022-11-14T11:15:46.044Z,9.24
2022-11-14T11:16:50.278Z,9.25
2022-11-14T11:17:54.545Z,9.28
2022-11-14T11:18:58.685Z,9.31
2022-11-14T11:20:07.403Z,9.34
2022-11-14T11:21:07.274Z,9.36
2022-11-14T11:22:11.406Z,9.38
2022-11-14T11:23:15.655Z,9.39
2022-11-14T11:24:19.965Z,9.42
2022-11-14T11:25:24.156Z,9.45
2022-11-14T11:26:28.447Z,9.47
2022-11-14T11:27:32.612Z,9.51
2022-11-14T11:28:36.865Z,9.50
2022-11-14T11:29:41.069Z,9.53
2022-11-14T11:30:46.204Z,9.54
2022-11-14T11:31:49.521Z,9.58
2022-11-14T11:32:53.872Z,9.62
2022-11-14T11:33:58.093Z,9.63
2022-11-14T11:35:02.394Z,9.64
2022-11-14T11:36:06.522Z,9.62
2022-11-14T11:37:10.814Z,9.59
2022-11-14T11:38:15.997Z,9.59
2022-11-14T11:39:19.249Z,9.58
2022-11-14T11:40:23.481Z,9.57
2022-11-14T11:42:07.821Z,9.56
2022-11-14T11:42:58.699Z,9.57
2022-11-14T11:43:39.282Z,9.59
2022-11-14T11:44:40.482Z,9.59
2022-11-14T11:45:44.699Z,9.59
2022-11-14T11:46:48.903Z,9.58
2022-11-14T11:47:53.150Z,9.57
2022-11-14T11:49:00.476Z,9.58
2022-11-14T11:50:03.783Z,9.61
2022-11-14T11:51:07.865Z,9.64
2022-11-14T11:52:12.115Z,9.64
2022-11-14T11:53:16.334Z,9.66
2022-11-14T11:54:20.538Z,9.69
2022-11-14T11:55:24.745Z,9.72
2022-11-14T11:56:28.944Z,9.74
2022-11-14T11:57:33.312Z,9.76
2022-11-14T11:58:37.472Z,9.76
2022-11-14T11:59:41.707Z,9.77
2022-11-14T12:00:46.043Z,9.78
2022-11-14T12:01:50.250Z,9.83
2022-11-14T12:02:54.493Z,9.86
2022-11-14T12:03:58.801Z,9.87
2022-11-14T12:05:02.932Z,9.88
2022-11-14T12:06:07.139Z,9.88
2022-11-14T12:07:11.391Z,9.87
2022-11-14T12:08:20.139Z,9.87
2022-11-14T12:09:19.950Z,9.85
2022-11-14T12:10:24.172Z,9.87
2022-11-14T12:11:28.356Z,9.90
2022-11-14T12:12:32.599Z,9.95
2022-11-14T12:13:36.820Z,9.96
2022-11-14T12:14:41.147Z,9.94
2022-11-14T12:15:45.328Z,9.96
2022-11-14T12:16:49.606Z,9.99
2022-11-14T12:17:53.869Z,10.02
2022-11-14T12:18:58.102Z,10.07
2022-11-14T12:20:02.346Z,10.10
2022-11-14T12:21:06.578Z,10.15
2022-11-14T12:22:10.930Z,10.16
2022-11-14T12:23:15.099Z,10.15
2022-11-14T12:24:19.309Z,10.14
2022-11-14T12:25:23.536Z,10.14
2022-11-14T12:26:27.782Z,10.19
2022-11-14T12:27:32.119Z,10.22
2022-11-14T12:28:36.343Z,10.26
2022-11-14T12:29:40.854Z,10.34
2022-11-14T12:30:46.192Z,10.34
2022-11-14T12:31:49.891Z,10.29
2022-11-14T12:32:54.116Z,10.32
2022-11-14T12:33:58.343Z,10.35
2022-11-14T12:35:02.820Z,10.34
2022-11-14T12:36:06.853Z,10.38
2022-11-14T12:37:11.152Z,10.38
2022-11-14T12:38:15.362Z,10.40
2022-11-14T12:39:19.646Z,10.37
2022-11-14T12:40:23.821Z,10.33
2022-11-14T12:41:28.049Z,10.36
2022-11-14T12:42:32.465Z,10.36
2022-11-14T12:43:37.832Z,10.36
2022-11-14T12:44:41.013Z,10.31
2022-11-14T12:45:45.144Z,10.27
2022-11-14T12:46:49.347Z,10.26
2022-11-14T12:47:53.604Z,10.29
2022-11-14T12:48:57.713Z,10.26
2022-11-14T12:50:02.006Z,10.22
2022-11-14T12:51:06.278Z,10.19
2022-11-14T12:52:10.541Z,10.22
2022-11-14T12:53:14.705Z,10.23
2022-11-14T12:54:18.982Z,10.16
2022-11-14T12:55:23.169Z,10.15
2022-11-14T12:56:27.490Z,10.11
2022-11-14T12:57:31.648Z,10.17
2022-11-14T12:58:35.938Z,10.13
2022-11-14T12:59:40.103Z,10.16
2022-11-14T13:00:44.453Z,10.17
2022-11-14T13:01:48.618Z,10.16
2022-11-14T13:02:52.776Z,10.15
2022-11-14T13:03:57.036Z,10.18
2022-11-14T13:05:01.276Z,10.19
2022-11-14T13:06:05.512Z,10.17
2022-11-14T13:07:09.757Z,10.18
2022-11-14T13:08:13.935Z,10.16
2022-11-14T13:09:18.287Z,10.18
2022-11-14T13:10:22.456Z,10.19
2022-11-14T13:11:26.651Z,10.25
2022-11-14T13:12:31.035Z,10.29
2022-11-14T13:13:35.449Z,10.26
2022-11-14T13:14:39.495Z,10.28
2022-11-14T13:15:48.621Z,10.26
2022-11-14T13:16:48.025Z,10.23
2022-11-14T13:17:52.247Z,10.23
2022-11-14T13:18:56.468Z,10.27
2022-11-14T13:20:00.808Z,10.18
2022-11-14T13:21:05.019Z,10.15
2022-11-14T13:22:09.233Z,10.20
2022-11-14T13:23:16.453Z,10.15
2022-11-14T13:24:19.830Z,10.11
2022-11-14T13:25:24.029Z,10.13
2022-11-14T13:26:28.339Z,10.14
2022-11-14T13:28:00.302Z,10.17
2022-11-14T13:28:36.663Z,10.16
2022-11-14T13:29:40.980Z,10.12
2022-11-14T13:30:45.115Z,10.14
2022-11-14T13:31:49.459Z,10.15
2022-11-14T13:32:53.597Z,10.14
2022-11-14T13:33:57.791Z,10.18
2022-11-14T13:35:01.995Z,10.22
2022-11-14T13:36:06.250Z,10.22
2022-11-14T13:37:10.448Z,10.25
2022-11-14T13:38:14.669Z,10.27
2022-11-14T13:39:19.005Z,10.21
2022-11-14T13:40:23.168Z,10.18
2022-11-14T13:41:27.421Z,10.20
2022-11-14T13:42:31.696Z,10.23
2022-11-14T13:43:35.810Z,10.25
2022-11-14T13:44:40.070Z,10.27
2022-11-14T13:45:44.405Z,10.27
2022-11-14T13:46:48.673Z,10.28
2022-11-14T13:47:52.816Z,10.28
2022-11-14T13:48:57.021Z,10.28
2022-11-14T13:50:01.364Z,10.25
2022-11-14T13:51:28.612Z,10.27
2022-11-14T13:52:09.759Z,10.27
2022-11-14T13:53:14.053Z,10.22
2022-11-14T13:54:18.691Z,10.20
2022-11-14T13:55:22.607Z,10.16
2022-11-14T13:56:26.916Z,10.14
2022-11-14T13:57:31.106Z,10.10
2022-11-14T13:58:35.167Z,10.10
2022-11-14T13:59:39.444Z,10.08
2022-11-14T14:00:43.825Z,10.07
2022-11-14T14:01:48.059Z,10.05
2022-11-14T14:02:52.328Z,10.05
2022-11-14T14:03:56.581Z,10.03
2022-11-14T14:05:00.788Z,10.01
2022-11-14T14:06:06.024Z,9.99
2022-11-14T14:07:09.429Z,9.94
2022-11-14T14:08:13.542Z,9.90
2022-11-14T14:09:18.261Z,9.85
2022-11-14T14:10:22.266Z,9.82
2022-11-14T14:11:29.482Z,9.80
2022-11-14T14:12:32.757Z,9.79